sensor_id;sensor_type;location;lat;lon;timestamp;P1;durP1;ratioP1;P2;durP2;ratioP2
44981;SDS011;30716;41.740;-70.400;2022-07-22T00:01:17;3.63;;;2.78;;
44981;SDS011;30716;41.740;-70.400;2022-07-22T00:03:45;3.58;;;2.40;;
44981;SDS011;30716;41.740;-70.400;2022-07-22T00:06:12;3.80;;;2.60;;
44981;SDS011;30716;41.740;-70.400;2022-07-22T00:08:38;5.05;;;3.00;;
44981;SDS011;30716;41.740;-70.400;2022-07-22T00:11:05;3.70;;;2.60;;
44981;SDS011;30716;41.740;-70.400;2022-07-22T00:13:31;4.28;;;2.72;;
44981;SDS011;30716;41.740;-70.400;2022-07-22T00:15:58;4.15;;;2.45;;
44981;SDS011;30716;41.740;-70.400;2022-07-22T00:18:24;3.70;;;2.80;;
44981;SDS011;30716;41.740;-70.400;2022-07-22T00:20:50;3.78;;;2.60;;
44981;SDS011;30716;41.740;-70.400;2022-07-22T00:23:17;4.55;;;3.22;;
44981;SDS011;30716;41.740;-70.400;2022-07-22T00:25:43;3.00;;;2.35;;
44981;SDS011;30716;41.740;-70.400;2022-07-22T00:28:09;4.35;;;2.72;;
44981;SDS011;30716;41.740;-70.400;2022-07-22T00:30:35;3.35;;;2.40;;
44981;SDS011;30716;41.740;-70.400;2022-07-22T00:33:02;3.47;;;2.50;;
44981;SDS011;30716;41.740;-70.400;2022-07-22T00:35:29;4.70;;;3.30;;
44981;SDS011;30716;41.740;-70.400;2022-07-22T00:37:55;4.93;;;2.85;;
44981;SDS011;30716;41.740;-70.400;2022-07-22T00:40:21;3.10;;;2.60;;
44981;SDS011;30716;41.740;-70.400;2022-07-22T00:42:47;3.67;;;2.55;;
44981;SDS011;30716;41.740;-70.400;2022-07-22T00:45:14;3.40;;;2.60;;
44981;SDS011;30716;41.740;-70.400;2022-07-22T00:47:40;3.13;;;2.42;;
44981;SDS011;30716;41.740;-70.400;2022-07-22T00:50:06;3.50;;;2.67;;
44981;SDS011;30716;41.740;-70.400;2022-07-22T00:52:33;2.88;;;2.42;;
44981;SDS011;30716;41.740;-70.400;2022-07-22T00:55:00;3.80;;;2.70;;
44981;SDS011;30716;41.740;-70.400;2022-07-22T00:57:28;4.03;;;2.80;;
44981;SDS011;30716;41.740;-70.400;2022-07-22T00:59:55;3.10;;;2.33;;
44981;SDS011;30716;41.740;-70.400;2022-07-22T01:02:21;4.25;;;3.08;;
44981;SDS011;30716;41.740;-70.400;2022-07-22T01:04:47;4.03;;;2.50;;
44981;SDS011;30716;41.740;-70.400;2022-07-22T01:07:13;4.55;;;2.40;;
44981;SDS011;30716;41.740;-70.400;2022-07-22T01:09:43;4.75;;;3.05;;
44981;SDS011;30716;41.740;-70.400;2022-07-22T01:12:10;4.18;;;2.50;;
44981;SDS011;30716;41.740;-70.400;2022-07-22T01:14:36;3.22;;;2.40;;
44981;SDS011;30716;41.740;-70.400;2022-07-22T01:17:03;4.32;;;3.30;;
44981;SDS011;30716;41.740;-70.400;2022-07-22T01:19:29;4.07;;;2.60;;
44981;SDS011;30716;41.740;-70.400;2022-07-22T01:21:55;4.07;;;2.55;;
44981;SDS011;30716;41.740;-70.400;2022-07-22T01:24:22;4.15;;;2.83;;
44981;SDS011;30716;41.740;-70.400;2022-07-22T01:26:48;6.45;;;4.05;;
44981;SDS011;30716;41.740;-70.400;2022-07-22T01:29:14;5.47;;;2.78;;
44981;SDS011;30716;41.740;-70.400;2022-07-22T01:31:40;3.67;;;2.63;;
44981;SDS011;30716;41.740;-70.400;2022-07-22T01:34:06;3.03;;;2.67;;
44981;SDS011;30716;41.740;-70.400;2022-07-22T01:36:32;3.80;;;2.70;;
44981;SDS011;30716;41.740;-70.400;2022-07-22T01:38:59;3.28;;;2.60;;
44981;SDS011;30716;41.740;-70.400;2022-07-22T01:41:25;3.75;;;2.40;;
44981;SDS011;30716;41.740;-70.400;2022-07-22T01:43:51;4.22;;;2.78;;
44981;SDS011;30716;41.740;-70.400;2022-07-22T01:46:17;3.58;;;2.70;;
44981;SDS011;30716;41.740;-70.400;2022-07-22T01:48:44;3.75;;;2.58;;
44981;SDS011;30716;41.740;-70.400;2022-07-22T01:51:10;4.95;;;2.33;;
44981;SDS011;30716;41.740;-70.400;2022-07-22T01:53:36;3.95;;;2.85;;
44981;SDS011;30716;41.740;-70.400;2022-07-22T01:56:02;3.78;;;2.70;;
44981;SDS011;30716;41.740;-70.400;2022-07-22T01:58:29;3.53;;;2.63;;
44981;SDS011;30716;41.740;-70.400;2022-07-22T02:00:55;3.60;;;2.85;;
44981;SDS011;30716;41.740;-70.400;2022-07-22T02:03:21;5.03;;;2.50;;
44981;SDS011;30716;41.740;-70.400;2022-07-22T02:05:47;4.53;;;3.22;;
44981;SDS011;30716;41.740;-70.400;2022-07-22T02:08:14;3.55;;;2.80;;
44981;SDS011;30716;41.740;-70.400;2022-07-22T02:10:40;4.28;;;3.05;;
44981;SDS011;30716;41.740;-70.400;2022-07-22T02:13:07;4.43;;;3.10;;
44981;SDS011;30716;41.740;-70.400;2022-07-22T02:15:34;2.97;;;2.40;;
44981;SDS011;30716;41.740;-70.400;2022-07-22T02:18:08;4.65;;;2.45;;
44981;SDS011;30716;41.740;-70.400;2022-07-22T02:20:38;4.45;;;2.80;;
44981;SDS011;30716;41.740;-70.400;2022-07-22T02:23:05;3.38;;;2.55;;
44981;SDS011;30716;41.740;-70.400;2022-07-22T02:25:31;3.92;;;2.80;;
44981;SDS011;30716;41.740;-70.400;2022-07-22T02:27:58;4.47;;;2.90;;
44981;SDS011;30716;41.740;-70.400;2022-07-22T02:30:24;3.38;;;2.70;;
44981;SDS011;30716;41.740;-70.400;2022-07-22T02:32:51;3.67;;;2.90;;
44981;SDS011;30716;41.740;-70.400;2022-07-22T02:35:17;4.28;;;2.40;;
44981;SDS011;30716;41.740;-70.400;2022-07-22T02:37:43;3.72;;;2.45;;
44981;SDS011;30716;41.740;-70.400;2022-07-22T02:40:10;4.80;;;3.22;;
44981;SDS011;30716;41.740;-70.400;2022-07-22T02:42:36;3.90;;;2.75;;
44981;SDS011;30716;41.740;-70.400;2022-07-22T02:45:03;3.90;;;2.78;;
44981;SDS011;30716;41.740;-70.400;2022-07-22T02:47:29;4.25;;;2.75;;
44981;SDS011;30716;41.740;-70.400;2022-07-22T02:49:55;3.17;;;2.33;;
44981;SDS011;30716;41.740;-70.400;2022-07-22T02:52:22;4.57;;;2.92;;
44981;SDS011;30716;41.740;-70.400;2022-07-22T02:54:48;3.35;;;2.40;;
44981;SDS011;30716;41.740;-70.400;2022-07-22T02:57:14;5.03;;;3.20;;
44981;SDS011;30716;41.740;-70.400;2022-07-22T02:59:40;3.75;;;3.03;;
44981;SDS011;30716;41.740;-70.400;2022-07-22T03:02:07;3.58;;;2.67;;
44981;SDS011;30716;41.740;-70.400;2022-07-22T03:04:33;3.53;;;2.63;;
44981;SDS011;30716;41.740;-70.400;2022-07-22T03:06:59;4.30;;;2.85;;
44981;SDS011;30716;41.740;-70.400;2022-07-22T03:09:25;4.20;;;3.03;;
44981;SDS011;30716;41.740;-70.400;2022-07-22T03:11:51;3.50;;;2.55;;
44981;SDS011;30716;41.740;-70.400;2022-07-22T03:14:18;3.92;;;2.67;;
44981;SDS011;30716;41.740;-70.400;2022-07-22T03:16:44;4.07;;;2.30;;
44981;SDS011;30716;41.740;-70.400;2022-07-22T03:19:10;3.80;;;2.72;;
44981;SDS011;30716;41.740;-70.400;2022-07-22T03:21:36;4.03;;;2.83;;
44981;SDS011;30716;41.740;-70.400;2022-07-22T03:24:03;3.33;;;2.97;;
44981;SDS011;30716;41.740;-70.400;2022-07-22T03:26:29;3.67;;;2.67;;
44981;SDS011;30716;41.740;-70.400;2022-07-22T03:28:55;3.88;;;2.75;;
44981;SDS011;30716;41.740;-70.400;2022-07-22T03:31:25;3.63;;;2.70;;
44981;SDS011;30716;41.740;-70.400;2022-07-22T03:33:52;4.20;;;3.03;;
44981;SDS011;30716;41.740;-70.400;2022-07-22T03:36:18;3.35;;;2.50;;
44981;SDS011;30716;41.740;-70.400;2022-07-22T03:38:45;4.82;;;3.03;;
44981;SDS011;30716;41.740;-70.400;2022-07-22T03:41:11;4.43;;;2.72;;
44981;SDS011;30716;41.740;-70.400;2022-07-22T03:43:37;4.50;;;2.90;;
44981;SDS011;30716;41.740;-70.400;2022-07-22T03:46:03;4.78;;;3.20;;
44981;SDS011;30716;41.740;-70.400;2022-07-22T03:48:30;3.50;;;2.83;;
44981;SDS011;30716;41.740;-70.400;2022-07-22T03:50:56;4.32;;;2.67;;
44981;SDS011;30716;41.740;-70.400;2022-07-22T03:53:22;3.95;;;3.00;;
44981;SDS011;30716;41.740;-70.400;2022-07-22T03:55:48;6.00;;;3.30;;
44981;SDS011;30716;41.740;-70.400;2022-07-22T03:58:15;4.07;;;2.67;;
44981;SDS011;30716;41.740;-70.400;2022-07-22T04:00:43;3.97;;;2.80;;
44981;SDS011;30716;41.740;-70.400;2022-07-22T04:03:10;4.35;;;2.88;;
44981;SDS011;30716;41.740;-70.400;2022-07-22T04:05:36;3.15;;;2.65;;
44981;SDS011;30716;41.740;-70.400;2022-07-22T04:08:02;5.07;;;2.42;;
44981;SDS011;30716;41.740;-70.400;2022-07-22T04:10:29;3.50;;;2.67;;
44981;SDS011;30716;41.740;-70.400;2022-07-22T04:12:55;3.50;;;2.35;;
44981;SDS011;30716;41.740;-70.400;2022-07-22T04:15:21;4.88;;;3.22;;
44981;SDS011;30716;41.740;-70.400;2022-07-22T04:17:49;3.50;;;2.75;;
44981;SDS011;30716;41.740;-70.400;2022-07-22T04:20:15;3.85;;;2.55;;
44981;SDS011;30716;41.740;-70.400;2022-07-22T04:22:42;4.05;;;3.10;;
44981;SDS011;30716;41.740;-70.400;2022-07-22T04:25:08;4.32;;;2.65;;
44981;SDS011;30716;41.740;-70.400;2022-07-22T04:27:35;4.05;;;2.53;;
44981;SDS011;30716;41.740;-70.400;2022-07-22T04:30:01;4.38;;;2.80;;
44981;SDS011;30716;41.740;-70.400;2022-07-22T04:32:28;3.80;;;2.75;;
44981;SDS011;30716;41.740;-70.400;2022-07-22T04:34:54;4.63;;;2.80;;
44981;SDS011;30716;41.740;-70.400;2022-07-22T04:37:20;4.80;;;3.08;;
44981;SDS011;30716;41.740;-70.400;2022-07-22T04:39:46;4.13;;;3.03;;
44981;SDS011;30716;41.740;-70.400;2022-07-22T04:42:12;3.78;;;2.78;;
44981;SDS011;30716;41.740;-70.400;2022-07-22T04:44:38;3.30;;;2.40;;
44981;SDS011;30716;41.740;-70.400;2022-07-22T04:47:05;3.83;;;2.80;;
44981;SDS011;30716;41.740;-70.400;2022-07-22T04:49:33;4.53;;;3.45;;
44981;SDS011;30716;41.740;-70.400;2022-07-22T04:51:59;4.90;;;2.88;;
44981;SDS011;30716;41.740;-70.400;2022-07-22T04:54:25;3.08;;;2.58;;
44981;SDS011;30716;41.740;-70.400;2022-07-22T04:56:51;4.75;;;3.10;;
44981;SDS011;30716;41.740;-70.400;2022-07-22T04:59:17;3.53;;;2.25;;
44981;SDS011;30716;41.740;-70.400;2022-07-22T05:01:44;4.15;;;3.13;;
44981;SDS011;30716;41.740;-70.400;2022-07-22T05:04:10;4.18;;;3.10;;
44981;SDS011;30716;41.740;-70.400;2022-07-22T05:06:37;4.15;;;2.70;;
44981;SDS011;30716;41.740;-70.400;2022-07-22T05:09:03;3.72;;;2.72;;
44981;SDS011;30716;41.740;-70.400;2022-07-22T05:11:29;3.42;;;2.78;;
44981;SDS011;30716;41.740;-70.400;2022-07-22T05:13:56;4.70;;;2.85;;
44981;SDS011;30716;41.740;-70.400;2022-07-22T05:16:22;6.65;;;3.42;;
44981;SDS011;30716;41.740;-70.400;2022-07-22T05:18:48;4.50;;;3.25;;
44981;SDS011;30716;41.740;-70.400;2022-07-22T05:21:16;3.85;;;2.75;;
44981;SDS011;30716;41.740;-70.400;2022-07-22T05:23:42;4.68;;;3.35;;
44981;SDS011;30716;41.740;-70.400;2022-07-22T05:26:08;4.75;;;3.10;;
44981;SDS011;30716;41.740;-70.400;2022-07-22T05:28:35;5.82;;;2.95;;
44981;SDS011;30716;41.740;-70.400;2022-07-22T05:31:01;4.07;;;3.00;;
44981;SDS011;30716;41.740;-70.400;2022-07-22T05:33:27;3.63;;;2.80;;
44981;SDS011;30716;41.740;-70.400;2022-07-22T05:35:53;4.40;;;3.08;;
44981;SDS011;30716;41.740;-70.400;2022-07-22T05:38:19;3.97;;;2.95;;
44981;SDS011;30716;41.740;-70.400;2022-07-22T05:40:45;4.05;;;2.85;;
44981;SDS011;30716;41.740;-70.400;2022-07-22T05:43:12;3.78;;;2.50;;
44981;SDS011;30716;41.740;-70.400;2022-07-22T05:45:38;3.40;;;2.50;;
44981;SDS011;30716;41.740;-70.400;2022-07-22T05:48:04;3.65;;;2.83;;
44981;SDS011;30716;41.740;-70.400;2022-07-22T05:50:31;3.28;;;2.55;;
44981;SDS011;30716;41.740;-70.400;2022-07-22T05:52:57;2.75;;;2.25;;
44981;SDS011;30716;41.740;-70.400;2022-07-22T05:55:23;4.43;;;3.22;;
44981;SDS011;30716;41.740;-70.400;2022-07-22T05:57:49;4.13;;;2.60;;
44981;SDS011;30716;41.740;-70.400;2022-07-22T06:00:15;3.42;;;2.40;;
44981;SDS011;30716;41.740;-70.400;2022-07-22T06:02:42;4.60;;;3.08;;
44981;SDS011;30716;41.740;-70.400;2022-07-22T06:05:08;3.72;;;2.80;;
44981;SDS011;30716;41.740;-70.400;2022-07-22T06:07:34;3.55;;;2.55;;
44981;SDS011;30716;41.740;-70.400;2022-07-22T06:10:00;4.00;;;2.67;;
44981;SDS011;30716;41.740;-70.400;2022-07-22T06:12:27;3.30;;;2.38;;
44981;SDS011;30716;41.740;-70.400;2022-07-22T06:14:53;4.43;;;3.05;;
44981;SDS011;30716;41.740;-70.400;2022-07-22T06:17:19;3.55;;;2.45;;
44981;SDS011;30716;41.740;-70.400;2022-07-22T06:19:45;6.43;;;2.70;;
44981;SDS011;30716;41.740;-70.400;2022-07-22T06:22:12;3.70;;;2.58;;
44981;SDS011;30716;41.740;-70.400;2022-07-22T06:24:38;3.35;;;2.28;;
44981;SDS011;30716;41.740;-70.400;2022-07-22T06:27:04;3.38;;;2.58;;
44981;SDS011;30716;41.740;-70.400;2022-07-22T06:29:30;3.25;;;2.33;;
44981;SDS011;30716;41.740;-70.400;2022-07-22T06:31:56;3.47;;;2.83;;
44981;SDS011;30716;41.740;-70.400;2022-07-22T06:34:23;4.68;;;2.65;;
44981;SDS011;30716;41.740;-70.400;2022-07-22T06:36:50;2.92;;;2.25;;
44981;SDS011;30716;41.740;-70.400;2022-07-22T06:39:17;3.30;;;2.35;;
44981;SDS011;30716;41.740;-70.400;2022-07-22T06:41:43;5.30;;;2.95;;
44981;SDS011;30716;41.740;-70.400;2022-07-22T06:44:09;3.47;;;2.70;;
44981;SDS011;30716;41.740;-70.400;2022-07-22T06:46:35;3.63;;;2.95;;
44981;SDS011;30716;41.740;-70.400;2022-07-22T06:49:02;3.97;;;3.45;;
44981;SDS011;30716;41.740;-70.400;2022-07-22T06:51:28;3.25;;;2.40;;
44981;SDS011;30716;41.740;-70.400;2022-07-22T06:53:55;5.45;;;2.88;;
44981;SDS011;30716;41.740;-70.400;2022-07-22T06:56:21;4.10;;;2.65;;
44981;SDS011;30716;41.740;-70.400;2022-07-22T06:58:47;3.38;;;2.40;;
44981;SDS011;30716;41.740;-70.400;2022-07-22T07:01:13;2.55;;;2.03;;
44981;SDS011;30716;41.740;-70.400;2022-07-22T07:03:40;4.18;;;2.70;;
44981;SDS011;30716;41.740;-70.400;2022-07-22T07:06:07;3.20;;;2.42;;
44981;SDS011;30716;41.740;-70.400;2022-07-22T07:08:37;3.15;;;2.42;;
44981;SDS011;30716;41.740;-70.400;2022-07-22T07:11:04;3.38;;;2.30;;
44981;SDS011;30716;41.740;-70.400;2022-07-22T07:13:30;3.30;;;2.30;;
44981;SDS011;30716;41.740;-70.400;2022-07-22T07:15:56;3.30;;;2.58;;
44981;SDS011;30716;41.740;-70.400;2022-07-22T07:18:23;2.83;;;2.20;;
44981;SDS011;30716;41.740;-70.400;2022-07-22T07:20:49;2.95;;;2.15;;
44981;SDS011;30716;41.740;-70.400;2022-07-22T07:23:15;3.55;;;2.58;;
44981;SDS011;30716;41.740;-70.400;2022-07-22T07:25:42;3.80;;;2.25;;
44981;SDS011;30716;41.740;-70.400;2022-07-22T07:28:08;3.38;;;2.13;;
44981;SDS011;30716;41.740;-70.400;2022-07-22T07:30:34;3.00;;;2.13;;
44981;SDS011;30716;41.740;-70.400;2022-07-22T07:33:00;3.00;;;2.17;;
44981;SDS011;30716;41.740;-70.400;2022-07-22T07:35:26;3.58;;;2.50;;
44981;SDS011;30716;41.740;-70.400;2022-07-22T07:37:53;4.97;;;2.40;;
44981;SDS011;30716;41.740;-70.400;2022-07-22T07:40:19;2.90;;;2.20;;
44981;SDS011;30716;41.740;-70.400;2022-07-22T07:42:47;3.20;;;2.30;;
44981;SDS011;30716;41.740;-70.400;2022-07-22T07:45:13;4.05;;;2.65;;
44981;SDS011;30716;41.740;-70.400;2022-07-22T07:47:39;3.25;;;2.38;;
44981;SDS011;30716;41.740;-70.400;2022-07-22T07:50:07;5.93;;;3.35;;
44981;SDS011;30716;41.740;-70.400;2022-07-22T07:52:52;3.88;;;2.78;;
44981;SDS011;30716;41.740;-70.400;2022-07-22T07:55:18;3.45;;;2.22;;
44981;SDS011;30716;41.740;-70.400;2022-07-22T07:57:44;3.50;;;2.25;;
44981;SDS011;30716;41.740;-70.400;2022-07-22T08:00:14;3.00;;;2.17;;
44981;SDS011;30716;41.740;-70.400;2022-07-22T08:02:41;3.35;;;2.45;;
44981;SDS011;30716;41.740;-70.400;2022-07-22T08:05:09;2.88;;;2.22;;
44981;SDS011;30716;41.740;-70.400;2022-07-22T08:07:35;3.13;;;2.15;;
44981;SDS011;30716;41.740;-70.400;2022-07-22T08:10:03;3.05;;;2.50;;
44981;SDS011;30716;41.740;-70.400;2022-07-22T08:12:33;3.58;;;2.55;;
44981;SDS011;30716;41.740;-70.400;2022-07-22T08:14:59;3.83;;;2.25;;
44981;SDS011;30716;41.740;-70.400;2022-07-22T08:17:25;2.60;;;1.92;;
44981;SDS011;30716;41.740;-70.400;2022-07-22T08:19:51;2.70;;;2.10;;
44981;SDS011;30716;41.740;-70.400;2022-07-22T08:22:17;4.00;;;2.15;;
44981;SDS011;30716;41.740;-70.400;2022-07-22T08:24:43;2.90;;;2.30;;
44981;SDS011;30716;41.740;-70.400;2022-07-22T08:27:09;2.65;;;1.88;;
44981;SDS011;30716;41.740;-70.400;2022-07-22T08:29:36;3.42;;;2.40;;
44981;SDS011;30716;41.740;-70.400;2022-07-22T08:32:02;3.53;;;2.17;;
44981;SDS011;30716;41.740;-70.400;2022-07-22T08:34:28;3.72;;;2.42;;
44981;SDS011;30716;41.740;-70.400;2022-07-22T08:36:54;3.08;;;2.20;;
44981;SDS011;30716;41.740;-70.400;2022-07-22T08:39:20;4.43;;;3.05;;
44981;SDS011;30716;41.740;-70.400;2022-07-22T08:41:46;3.38;;;2.47;;
44981;SDS011;30716;41.740;-70.400;2022-07-22T08:44:12;3.10;;;2.40;;
44981;SDS011;30716;41.740;-70.400;2022-07-22T08:46:39;2.67;;;2.15;;
44981;SDS011;30716;41.740;-70.400;2022-07-22T08:49:08;3.55;;;2.28;;
44981;SDS011;30716;41.740;-70.400;2022-07-22T08:51:35;2.63;;;1.83;;
44981;SDS011;30716;41.740;-70.400;2022-07-22T08:54:01;3.03;;;2.05;;
44981;SDS011;30716;41.740;-70.400;2022-07-22T08:56:27;3.20;;;2.13;;
44981;SDS011;30716;41.740;-70.400;2022-07-22T08:58:54;3.22;;;2.45;;
44981;SDS011;30716;41.740;-70.400;2022-07-22T09:01:20;3.13;;;2.08;;
44981;SDS011;30716;41.740;-70.400;2022-07-22T09:03:50;2.50;;;2.03;;
44981;SDS011;30716;41.740;-70.400;2022-07-22T09:06:22;2.53;;;2.00;;
44981;SDS011;30716;41.740;-70.400;2022-07-22T09:08:50;2.60;;;2.25;;
44981;SDS011;30716;41.740;-70.400;2022-07-22T09:11:25;2.47;;;1.70;;
44981;SDS011;30716;41.740;-70.400;2022-07-22T09:13:56;2.65;;;2.05;;
44981;SDS011;30716;41.740;-70.400;2022-07-22T09:17:07;2.75;;;2.08;;
44981;SDS011;30716;41.740;-70.400;2022-07-22T09:19:14;4.30;;;2.22;;
44981;SDS011;30716;41.740;-70.400;2022-07-22T09:21:41;2.97;;;2.22;;
44981;SDS011;30716;41.740;-70.400;2022-07-22T09:24:25;2.78;;;2.10;;
44981;SDS011;30716;41.740;-70.400;2022-07-22T09:26:57;2.78;;;1.85;;
44981;SDS011;30716;41.740;-70.400;2022-07-22T09:29:23;3.22;;;2.05;;
44981;SDS011;30716;41.740;-70.400;2022-07-22T09:31:50;4.03;;;2.38;;
44981;SDS011;30716;41.740;-70.400;2022-07-22T09:34:35;2.38;;;1.92;;
44981;SDS011;30716;41.740;-70.400;2022-07-22T09:37:02;2.58;;;1.67;;
44981;SDS011;30716;41.740;-70.400;2022-07-22T09:39:32;2.35;;;2.00;;
44981;SDS011;30716;41.740;-70.400;2022-07-22T09:41:59;3.10;;;2.00;;
44981;SDS011;30716;41.740;-70.400;2022-07-22T09:44:30;3.00;;;2.10;;
44981;SDS011;30716;41.740;-70.400;2022-07-22T09:46:57;3.10;;;2.17;;
44981;SDS011;30716;41.740;-70.400;2022-07-22T09:49:33;2.60;;;1.90;;
44981;SDS011;30716;41.740;-70.400;2022-07-22T09:52:02;2.47;;;1.60;;
44981;SDS011;30716;41.740;-70.400;2022-07-22T09:54:29;3.75;;;2.28;;
44981;SDS011;30716;41.740;-70.400;2022-07-22T09:56:56;2.92;;;2.25;;
44981;SDS011;30716;41.740;-70.400;2022-07-22T09:59:23;2.67;;;2.05;;
44981;SDS011;30716;41.740;-70.400;2022-07-22T10:01:50;2.40;;;2.03;;
44981;SDS011;30716;41.740;-70.400;2022-07-22T10:04:20;2.50;;;1.90;;
44981;SDS011;30716;41.740;-70.400;2022-07-22T10:06:49;3.15;;;2.30;;
44981;SDS011;30716;41.740;-70.400;2022-07-22T10:09:17;3.80;;;2.40;;
44981;SDS011;30716;41.740;-70.400;2022-07-22T10:11:43;3.08;;;2.10;;
44981;SDS011;30716;41.740;-70.400;2022-07-22T10:14:13;3.47;;;2.20;;
44981;SDS011;30716;41.740;-70.400;2022-07-22T10:16:42;2.75;;;2.05;;
44981;SDS011;30716;41.740;-70.400;2022-07-22T10:19:09;2.95;;;1.95;;
44981;SDS011;30716;41.740;-70.400;2022-07-22T10:21:36;2.78;;;2.00;;
44981;SDS011;30716;41.740;-70.400;2022-07-22T10:24:13;2.75;;;2.00;;
44981;SDS011;30716;41.740;-70.400;2022-07-22T10:26:53;2.72;;;1.90;;
44981;SDS011;30716;41.740;-70.400;2022-07-22T10:29:41;4.53;;;2.03;;
44981;SDS011;30716;41.740;-70.400;2022-07-22T10:40:19;2.92;;;2.28;;
44981;SDS011;30716;41.740;-70.400;2022-07-22T10:45:33;2.78;;;1.80;;
44981;SDS011;30716;41.740;-70.400;2022-07-22T10:48:05;2.85;;;1.98;;
44981;SDS011;30716;41.740;-70.400;2022-07-22T10:53:07;2.47;;;1.80;;
44981;SDS011;30716;41.740;-70.400;2022-07-22T10:55:34;2.63;;;1.83;;
44981;SDS011;30716;41.740;-70.400;2022-07-22T11:01:01;2.55;;;1.92;;
44981;SDS011;30716;41.740;-70.400;2022-07-22T11:03:29;3.03;;;2.08;;
44981;SDS011;30716;41.740;-70.400;2022-07-22T11:06:17;2.72;;;1.80;;
44981;SDS011;30716;41.740;-70.400;2022-07-22T11:08:47;2.53;;;1.95;;
44981;SDS011;30716;41.740;-70.400;2022-07-22T11:11:16;4.20;;;2.47;;
44981;SDS011;30716;41.740;-70.400;2022-07-22T11:13:43;2.38;;;1.88;;
44981;SDS011;30716;41.740;-70.400;2022-07-22T11:16:13;2.40;;;1.80;;
44981;SDS011;30716;41.740;-70.400;2022-07-22T11:18:51;2.40;;;1.80;;
44981;SDS011;30716;41.740;-70.400;2022-07-22T11:21:19;2.35;;;1.63;;
44981;SDS011;30716;41.740;-70.400;2022-07-22T11:23:52;2.38;;;1.85;;
44981;SDS011;30716;41.740;-70.400;2022-07-22T11:26:23;2.47;;;1.80;;
44981;SDS011;30716;41.740;-70.400;2022-07-22T11:28:59;2.63;;;2.03;;
44981;SDS011;30716;41.740;-70.400;2022-07-22T11:31:28;3.17;;;2.20;;
44981;SDS011;30716;41.740;-70.400;2022-07-22T11:34:05;2.40;;;1.52;;
44981;SDS011;30716;41.740;-70.400;2022-07-22T11:36:34;3.53;;;2.40;;
44981;SDS011;30716;41.740;-70.400;2022-07-22T11:39:02;2.53;;;1.70;;
44981;SDS011;30716;41.740;-70.400;2022-07-22T11:41:30;2.72;;;1.80;;
44981;SDS011;30716;41.740;-70.400;2022-07-22T11:43:57;2.88;;;1.80;;
44981;SDS011;30716;41.740;-70.400;2022-07-22T11:46:24;2.60;;;1.98;;
44981;SDS011;30716;41.740;-70.400;2022-07-22T11:48:52;2.63;;;2.05;;
44981;SDS011;30716;41.740;-70.400;2022-07-22T11:51:19;2.40;;;1.50;;
44981;SDS011;30716;41.740;-70.400;2022-07-22T11:53:46;2.53;;;1.90;;
44981;SDS011;30716;41.740;-70.400;2022-07-22T11:56:12;2.28;;;1.73;;
44981;SDS011;30716;41.740;-70.400;2022-07-22T11:58:40;2.58;;;2.38;;
44981;SDS011;30716;41.740;-70.400;2022-07-22T12:01:09;2.97;;;2.17;;
44981;SDS011;30716;41.740;-70.400;2022-07-22T12:03:41;3.97;;;2.25;;
44981;SDS011;30716;41.740;-70.400;2022-07-22T12:06:12;2.30;;;1.70;;
44981;SDS011;30716;41.740;-70.400;2022-07-22T12:08:45;2.80;;;2.10;;
44981;SDS011;30716;41.740;-70.400;2022-07-22T12:11:14;2.10;;;1.80;;
44981;SDS011;30716;41.740;-70.400;2022-07-22T12:13:43;2.85;;;1.88;;
44981;SDS011;30716;41.740;-70.400;2022-07-22T12:16:26;3.17;;;2.17;;
44981;SDS011;30716;41.740;-70.400;2022-07-22T12:21:57;2.13;;;1.75;;
44981;SDS011;30716;41.740;-70.400;2022-07-22T12:24:27;3.47;;;2.35;;
44981;SDS011;30716;41.740;-70.400;2022-07-22T12:26:54;3.70;;;2.33;;
44981;SDS011;30716;41.740;-70.400;2022-07-22T12:29:26;2.50;;;1.80;;
44981;SDS011;30716;41.740;-70.400;2022-07-22T12:34:36;2.90;;;2.17;;
44981;SDS011;30716;41.740;-70.400;2022-07-22T12:42:19;3.00;;;2.05;;
44981;SDS011;30716;41.740;-70.400;2022-07-22T12:47:50;2.27;;;1.67;;
44981;SDS011;30716;41.740;-70.400;2022-07-22T12:50:25;2.70;;;1.75;;
44981;SDS011;30716;41.740;-70.400;2022-07-22T12:52:55;2.42;;;1.83;;
44981;SDS011;30716;41.740;-70.400;2022-07-22T12:55:27;3.03;;;1.95;;
44981;SDS011;30716;41.740;-70.400;2022-07-22T12:57:54;3.42;;;2.28;;
44981;SDS011;30716;41.740;-70.400;2022-07-22T13:00:21;2.80;;;2.20;;
44981;SDS011;30716;41.740;-70.400;2022-07-22T13:02:54;1.95;;;1.60;;
44981;SDS011;30716;41.740;-70.400;2022-07-22T13:05:21;2.63;;;1.90;;
44981;SDS011;30716;41.740;-70.400;2022-07-22T13:07:49;2.70;;;2.00;;
44981;SDS011;30716;41.740;-70.400;2022-07-22T13:10:19;2.42;;;1.80;;
44981;SDS011;30716;41.740;-70.400;2022-07-22T13:12:51;2.85;;;1.98;;
44981;SDS011;30716;41.740;-70.400;2022-07-22T13:15:19;2.50;;;1.85;;
44981;SDS011;30716;41.740;-70.400;2022-07-22T13:17:46;1.83;;;1.50;;
44981;SDS011;30716;41.740;-70.400;2022-07-22T13:20:13;2.25;;;1.70;;
44981;SDS011;30716;41.740;-70.400;2022-07-22T13:22:42;2.55;;;2.00;;
44981;SDS011;30716;41.740;-70.400;2022-07-22T13:25:09;3.08;;;1.80;;
44981;SDS011;30716;41.740;-70.400;2022-07-22T13:27:35;1.90;;;1.52;;
44981;SDS011;30716;41.740;-70.400;2022-07-22T13:30:01;2.78;;;2.10;;
44981;SDS011;30716;41.740;-70.400;2022-07-22T13:32:28;2.58;;;1.80;;
44981;SDS011;30716;41.740;-70.400;2022-07-22T13:34:54;2.10;;;1.60;;
44981;SDS011;30716;41.740;-70.400;2022-07-22T13:37:21;2.58;;;1.92;;
44981;SDS011;30716;41.740;-70.400;2022-07-22T13:39:47;2.78;;;1.98;;
44981;SDS011;30716;41.740;-70.400;2022-07-22T13:42:14;2.47;;;1.55;;
44981;SDS011;30716;41.740;-70.400;2022-07-22T13:44:45;2.65;;;2.00;;
44981;SDS011;30716;41.740;-70.400;2022-07-22T13:47:12;3.03;;;2.00;;
44981;SDS011;30716;41.740;-70.400;2022-07-22T13:49:38;3.35;;;2.08;;
44981;SDS011;30716;41.740;-70.400;2022-07-22T13:52:05;3.10;;;2.22;;
44981;SDS011;30716;41.740;-70.400;2022-07-22T13:54:32;2.05;;;1.63;;
44981;SDS011;30716;41.740;-70.400;2022-07-22T13:56:59;2.13;;;1.65;;
44981;SDS011;30716;41.740;-70.400;2022-07-22T13:59:26;2.60;;;2.03;;
44981;SDS011;30716;41.740;-70.400;2022-07-22T14:01:54;2.63;;;1.95;;
44981;SDS011;30716;41.740;-70.400;2022-07-22T14:04:20;3.08;;;1.88;;
44981;SDS011;30716;41.740;-70.400;2022-07-22T14:06:47;2.97;;;2.28;;
44981;SDS011;30716;41.740;-70.400;2022-07-22T14:09:13;2.33;;;1.73;;
44981;SDS011;30716;41.740;-70.400;2022-07-22T14:11:40;3.78;;;2.75;;
44981;SDS011;30716;41.740;-70.400;2022-07-22T14:14:06;5.05;;;2.30;;
44981;SDS011;30716;41.740;-70.400;2022-07-22T14:16:34;2.17;;;1.65;;
44981;SDS011;30716;41.740;-70.400;2022-07-22T14:19:10;2.30;;;1.92;;
44981;SDS011;30716;41.740;-70.400;2022-07-22T14:21:40;3.00;;;1.73;;
44981;SDS011;30716;41.740;-70.400;2022-07-22T14:24:08;2.38;;;1.70;;
44981;SDS011;30716;41.740;-70.400;2022-07-22T14:26:35;2.83;;;1.88;;
44981;SDS011;30716;41.740;-70.400;2022-07-22T14:29:03;2.53;;;1.63;;
44981;SDS011;30716;41.740;-70.400;2022-07-22T14:31:30;2.25;;;1.70;;
44981;SDS011;30716;41.740;-70.400;2022-07-22T14:33:57;2.47;;;1.80;;
44981;SDS011;30716;41.740;-70.400;2022-07-22T14:36:25;2.10;;;1.63;;
44981;SDS011;30716;41.740;-70.400;2022-07-22T14:38:51;2.40;;;1.95;;
44981;SDS011;30716;41.740;-70.400;2022-07-22T14:41:20;2.60;;;2.03;;
44981;SDS011;30716;41.740;-70.400;2022-07-22T14:43:47;2.03;;;1.50;;
44981;SDS011;30716;41.740;-70.400;2022-07-22T14:46:13;1.85;;;1.48;;
44981;SDS011;30716;41.740;-70.400;2022-07-22T14:48:39;3.13;;;1.98;;
44981;SDS011;30716;41.740;-70.400;2022-07-22T14:51:11;2.60;;;1.80;;
44981;SDS011;30716;41.740;-70.400;2022-07-22T14:53:37;2.60;;;1.70;;